Time;durP1;ratioP1;P1;durP2;ratioP2;P2;SDS_P1;SDS_P2;PMS_P1;PMS_P2;Temp;Humidity;BMP_temperature;BMP_pressure;BME280_temperature;BME280_humidity;BME280_pressure;Samples;Min_cycle;Max_cycle;Signal;HPM_P1;HPM_P2
2023/01/06 00:00:34;;;;;;;14.50;10.73;;;;;;;9.89;100.00;100529.91;5080890;28;20504;-60
2023/01/06 00:03:00;;;;;;;11.60;9.63;;;;;;;10.01;100.00;100528.03;5084217;28;20464;-61
2023/01/06 00:05:27;;;;;;;14.50;9.80;;;;;;;10.09;100.00;100531.75;5083811;28;20484;-60
2023/01/06 00:07:54;;;;;;;17.97;10.20;;;;;;;9.97;100.00;100522.13;5084270;28;20473;-61
2023/01/06 00:10:22;;;;;;;14.30;11.90;;;;;;;10.01;100.00;100520.88;5084024;28;20460;-60
2023/01/06 00:12:49;;;;;;;14.37;10.80;;;;;;;10.13;100.00;100521.66;5083526;28;20482;-60
2023/01/06 00:15:17;;;;;;;12.40;10.37;;;;;;;10.02;100.00;100524.41;5083118;28;20957;-60
2023/01/06 00:17:44;;;;;;;11.93;10.13;;;;;;;10.05;100.00;100513.44;5084364;28;20432;-61
2023/01/06 00:20:12;;;;;;;13.80;9.40;;;;;;;10.05;100.00;100516.97;5083341;28;20516;-60
2023/01/06 00:22:39;;;;;;;13.30;9.77;;;;;;;9.99;100.00;100504.97;5084290;28;20460;-60
2023/01/06 00:25:08;;;;;;;14.97;10.17;;;;;;;9.96;100.00;100507.06;5084276;28;20510;-60
2023/01/06 00:27:37;;;;;;;12.33;9.87;;;;;;;9.80;100.00;100492.31;5063340;28;20790;-60
2023/01/06 00:30:04;;;;;;;13.33;10.27;;;;;;;9.95;100.00;100495.53;5064563;28;20457;-60
2023/01/06 00:32:31;;;;;;;13.17;9.30;;;;;;;9.93;100.00;100499.28;5083281;28;20587;-60
2023/01/06 00:34:57;;;;;;;13.63;8.97;;;;;;;9.93;100.00;100488.59;5084430;28;20486;-61
2023/01/06 00:37:24;;;;;;;12.67;9.57;;;;;;;9.97;100.00;100490.91;5064495;28;20707;-60
2023/01/06 00:39:51;;;;;;;11.13;9.10;;;;;;;9.91;100.00;100493.25;5064026;28;20580;-60
2023/01/06 00:42:17;;;;;;;15.80;9.30;;;;;;;9.86;100.00;100492.78;5062731;28;20531;-60
2023/01/06 00:44:45;;;;;;;13.67;7.80;;;;;;;9.96;100.00;100491.03;5064158;28;20441;-61
2023/01/06 00:47:13;;;;;;;10.30;7.40;;;;;;;9.93;100.00;100494.81;5081224;28;20476;-60
2023/01/06 00:49:39;;;;;;;12.53;7.80;;;;;;;9.96;100.00;100488.34;5082786;28;20477;-60
2023/01/06 00:52:06;;;;;;;14.50;8.30;;;;;;;10.00;100.00;100497.81;5083437;28;21053;-61
2023/01/06 00:54:34;;;;;;;8.87;6.80;;;;;;;9.85;100.00;100491.94;5084213;28;20496;-60
2023/01/06 00:57:00;;;;;;;14.17;8.40;;;;;;;9.97;100.00;100495.41;5082853;28;20951;-61
2023/01/06 00:59:27;;;;;;;12.70;8.00;;;;;;;9.97;100.00;100495.41;5083575;28;20432;-61
2023/01/06 01:01:56;;;;;;;15.53;8.53;;;;;;;9.93;100.00;100492.16;5083110;28;20507;-61
2023/01/06 01:04:24;;;;;;;10.07;7.33;;;;;;;9.87;100.00;100479.31;5084030;28;20472;-60
2023/01/06 01:06:51;;;;;;;8.13;6.13;;;;;;;10.05;100.00;100486.72;5082846;28;20856;-60
2023/01/06 01:09:21;;;;;;;9.30;7.20;;;;;;;9.97;100.00;100487.38;5083653;28;20460;-60
2023/01/06 01:14:33;;;;;;;10.73;7.20;;;;;;;9.96;100.00;100483.88;5083413;28;20510;-60
2023/01/06 01:17:01;;;;;;;9.80;6.13;;;;;;;9.91;100.00;100486.09;5082584;28;20476;-59
2023/01/06 01:19:28;;;;;;;7.27;5.60;;;;;;;9.95;100.00;100497.38;5083374;28;20440;-60
2023/01/06 01:21:54;;;;;;;9.07;5.73;;;;;;;9.92;100.00;100489.59;5082782;28;20515;-60
2023/01/06 01:24:21;;;;;;;9.97;5.83;;;;;;;10.06;100.00;100485.75;5083564;28;20468;-60
2023/01/06 01:26:48;;;;;;;10.17;5.80;;;;;;;10.00;100.00;100487.13;5081643;28;20571;-60
2023/01/06 01:29:17;;;;;;;10.33;6.60;;;;;;;9.98;100.00;100489.06;5083221;28;20445;-60
2023/01/06 01:31:43;;;;;;;13.70;6.67;;;;;;;10.03;100.00;100486.84;5082077;28;20555;-60
2023/01/06 01:34:13;;;;;;;13.80;6.40;;;;;;;10.01;100.00;100496.00;5082745;28;20475;-60
2023/01/06 01:36:40;;;;;;;10.50;6.90;;;;;;;9.92;100.00;100479.75;5081859;28;20539;-61
2023/01/06 01:39:07;;;;;;;10.60;7.27;;;;;;;9.95;100.00;100473.31;5082805;28;20926;-60
2023/01/06 01:41:33;;;;;;;11.83;7.20;;;;;;;10.08;100.00;100468.59;5081888;28;20557;-60
2023/01/06 01:44:02;;;;;;;10.80;6.60;;;;;;;10.00;100.00;100473.78;5082896;28;20453;-60
2023/01/06 01:46:31;;;;;;;11.77;7.90;;;;;;;9.95;100.00;100459.97;5072022;28;20465;-60
2023/01/06 01:49:02;;;;;;;9.87;7.60;;;;;;;9.88;100.00;100464.97;5082219;28;20492;-60
2023/01/06 01:51:33;;;;;;;10.60;7.47;;;;;;;9.84;100.00;100462.69;5068647;28;20468;-59
2023/01/06 01:54:02;;;;;;;11.80;8.70;;;;;;;9.92;100.00;100461.06;5082854;28;20454;-58
2023/01/06 01:56:30;;;;;;;13.73;8.93;;;;;;;9.93;100.00;100461.91;5081400;28;20488;-58
2023/01/06 01:58:59;;;;;;;15.67;11.67;;;;;;;9.88;100.00;100451.63;5082341;28;20453;-58
2023/01/06 02:01:26;;;;;;;18.97;11.70;;;;;;;9.78;100.00;100442.72;5082459;28;20476;-58
2023/01/06 02:03:53;;;;;;;16.13;12.40;;;;;;;9.93;100.00;100451.22;5081919;28;20520;-57
2023/01/06 02:06:21;;;;;;;14.70;11.70;;;;;;;9.94;100.00;100443.06;5081867;28;20472;-57
2023/01/06 02:08:54;;;;;;;15.17;12.20;;;;;;;9.88;100.00;100450.78;5082583;28;20448;-57
2023/01/06 02:11:22;;;;;;;18.50;12.30;;;;;;;9.93;100.00;100459.22;5081585;28;20491;-57
2023/01/06 02:13:52;;;;;;;21.90;13.33;;;;;;;9.95;100.00;100447.47;5082242;28;21074;-58
2023/01/06 02:16:22;;;;;;;18.10;12.23;;;;;;;9.86;100.00;100447.38;5081735;28;20484;-57
2023/01/06 02:18:55;;;;;;;18.27;12.40;;;;;;;9.78;100.00;100448.06;5081199;28;20471;-58
2023/01/06 02:21:33;;;;;;;17.50;13.20;;;;;;;9.83;100.00;100456.53;5081290;28;20500;-57
2023/01/06 02:24:35;;;;;;;17.57;11.87;;;;;;;9.77;100.00;100441.88;5081134;28;20464;-56
2023/01/06 02:27:40;;;;;;;18.30;12.90;;;;;;;9.79;100.00;100449.72;5080252;28;20472;-57
2023/01/06 02:30:36;;;;;;;20.93;12.20;;;;;;;9.83;100.00;100442.34;5063559;28;21200;-57
2023/01/06 02:33:10;;;;;;;15.70;11.40;;;;;;;9.91;100.00;100442.50;5062218;28;20485;-57
2023/01/06 02:36:03;;;;;;;16.90;12.87;;;;;;;9.87;100.00;100427.72;5073061;28;20510;-57
2023/01/06 02:38:42;;;;;;;18.20;12.97;;;;;;;9.88;100.00;100438.28;5068758;28;20515;-56
2023/01/06 02:41:22;;;;;;;21.63;11.80;;;;;;;10.00;100.00;100425.69;5080487;28;20507;-57
2023/01/06 02:43:55;;;;;;;20.00;12.83;;;;;;;9.89;100.00;100423.09;5080762;28;20467;-57
2023/01/06 02:46:33;;;;;;;15.77;14.00;;;;;;;9.90;100.00;100419.47;5080236;28;20489;-57
2023/01/06 02:49:09;;;;;;;17.07;11.60;;;;;;;10.00;100.00;100425.69;5081282;28;20880;-57
2023/01/06 02:51:43;;;;;;;15.83;11.00;;;;;;;10.01;100.00;100421.19;5080351;28;20603;-57
2023/01/06 02:54:17;;;;;;;14.70;10.37;;;;;;;9.71;100.00;100413.00;5082007;28;20909;-57
2023/01/06 02:56:46;;;;;;;14.97;11.00;;;;;;;9.93;100.00;100414.69;5079656;28;20482;-57
2023/01/06 02:59:20;;;;;;;15.60;10.83;;;;;;;9.85;100.00;100416.34;5081553;28;20456;-57
2023/01/06 03:01:48;;;;;;;21.77;10.70;;;;;;;9.96;100.00;100410.91;5080081;28;20526;-57
2023/01/06 03:04:18;;;;;;;17.90;12.10;;;;;;;9.92;100.00;100415.66;5081662;28;21211;-57
2023/01/06 03:06:47;;;;;;;14.83;11.50;;;;;;;9.92;100.00;100404.97;5080683;28;20480;-58
2023/01/06 03:09:15;;;;;;;15.03;9.90;;;;;;;9.91;100.00;100405.09;5081616;28;20466;-57
2023/01/06 03:11:43;;;;;;;14.50;10.63;;;;;;;9.93;100.00;100413.81;5080345;28;20515;-57
2023/01/06 03:14:13;;;;;;;17.63;12.43;;;;;;;9.93;100.00;100414.69;5081709;28;20479;-57
2023/01/06 03:16:40;;;;;;;15.83;11.37;;;;;;;9.96;100.00;100416.25;5080327;28;20543;-58
2023/01/06 03:19:07;;;;;;;16.10;11.30;;;;;;;10.02;100.00;100412.22;5081354;28;21108;-57
2023/01/06 03:21:37;;;;;;;14.37;10.40;;;;;;;9.89;100.00;100412.41;5080360;28;20563;-57
2023/01/06 03:24:04;;;;;;;17.63;10.77;;;;;;;10.00;100.00;100409.69;5081071;28;21016;-57
2023/01/06 03:26:31;;;;;;;14.40;9.33;;;;;;;10.02;100.00;100410.38;5080057;28;20499;-58
2023/01/06 03:28:59;;;;;;;13.70;10.10;;;;;;;10.02;100.00;100401.53;5081083;28;20468;-57
2023/01/06 03:31:32;;;;;;;15.87;9.50;;;;;;;10.08;100.00;100407.16;5080910;28;20472;-57
2023/01/06 03:34:03;;;;;;;14.60;9.63;;;;;;;10.04;100.00;100397.72;5080747;28;20452;-57
2023/01/06 03:36:38;;;;;;;13.90;9.10;;;;;;;9.94;100.00;100395.00;5080341;28;20484;-57
2023/01/06 03:39:09;;;;;;;14.13;8.20;;;;;;;9.98;100.00;100404.47;5080710;28;20480;-58
2023/01/06 03:44:31;;;;;;;11.10;6.37;;;;;;;10.03;100.00;100388.00;5081260;28;20443;-58
2023/01/06 03:47:05;;;;;;;11.50;5.90;;;;;;;9.89;100.00;100386.53;5080143;28;21019;-59
2023/01/06 03:49:34;;;;;;;8.67;6.60;;;;;;;9.97;100.00;100386.72;5080057;28;20432;-58
2023/01/06 03:52:05;;;;;;;11.13;5.77;;;;;;;10.16;100.00;100387.81;5079746;28;20480;-57
2023/01/06 03:54:38;;;;;;;11.23;5.80;;;;;;;10.26;100.00;100393.16;5081131;28;20460;-57
2023/01/06 03:57:07;;;;;;;10.23;5.83;;;;;;;9.99;100.00;100387.44;5080075;28;20499;-57
2023/01/06 03:59:37;;;;;;;10.67;5.37;;;;;;;10.13;100.00;100385.41;5080884;28;20510;-57
2023/01/06 04:02:05;;;;;;;10.40;4.30;;;;;;;9.97;100.00;100381.38;5080025;28;20480;-57
2023/01/06 04:04:32;;;;;;;10.20;4.93;;;;;;;10.06;100.00;100377.06;5081545;28;20432;-57
2023/01/06 04:06:58;;;;;;;5.10;3.80;;;;;;;10.08;100.00;100375.09;5079579;28;20487;-58
2023/01/06 04:09:26;;;;;;;6.70;3.87;;;;;;;10.24;100.00;100363.06;5080515;28;20476;-57
2023/01/06 04:14:37;;;;;;;4.13;3.00;;;;;;;10.16;100.00;100375.28;5081318;28;20456;-58
2023/01/06 04:17:03;;;;;;;5.00;2.60;;;;;;;10.03;100.00;100355.13;5079543;28;20488;-57
2023/01/06 04:19:30;;;;;;;5.90;2.53;;;;;;;10.08;100.00;100353.72;5080648;28;20441;-58
2023/01/06 04:21:57;;;;;;;4.83;2.80;;;;;;;10.06;100.00;100345.00;5079994;28;20553;-57
2023/01/06 04:24:23;;;;;;;2.87;2.10;;;;;;;10.25;100.00;100340.72;5080497;28;20474;-57
2023/01/06 04:26:51;;;;;;;5.53;3.00;;;;;;;10.08;100.00;100335.03;5078439;28;20543;-57
2023/01/06 04:29:18;;;;;;;2.93;2.33;;;;;;;10.19;100.00;100339.47;5079679;28;20484;-60
2023/01/06 04:31:44;;;;;;;3.33;2.10;;;;;;;10.20;100.00;100340.28;5079884;28;20559;-60
2023/01/06 04:34:11;;;;;;;4.17;1.57;;;;;;;10.21;100.00;100336.63;5080013;28;21327;-60
2023/01/06 04:36:38;;;;;;;3.03;1.83;;;;;;;10.27;100.00;100344.09;5079922;28;20496;-60
2023/01/06 04:39:04;;;;;;;11.80;2.10;;;;;;;10.04;100.00;100346.16;5080039;28;20506;-60
2023/01/06 04:41:31;;;;;;;3.60;2.63;;;;;;;10.16;100.00;100337.03;5079807;28;20499;-59
2023/01/06 04:43:59;;;;;;;7.20;2.43;;;;;;;10.22;100.00;100331.16;5080350;28;21042;-61
2023/01/06 04:46:26;;;;;;;3.50;1.57;;;;;;;10.31;100.00;100332.16;5080780;28;20476;-60
2023/01/06 04:48:52;;;;;;;4.27;1.50;;;;;;;10.17;100.00;100331.56;5083724;28;20448;-61
2023/01/06 04:51:19;;;;;;;5.03;1.37;;;;;;;10.15;100.00;100327.31;5082813;28;20487;-61
2023/01/06 04:53:46;;;;;;;2.33;1.30;;;;;;;10.24;100.00;100315.84;5084526;28;20424;-60
2023/01/06 04:56:13;;;;;;;3.33;1.30;;;;;;;10.35;100.00;100317.59;5082833;28;20502;-60
2023/01/06 04:58:40;;;;;;;6.73;2.03;;;;;;;10.25;100.00;100309.50;5083650;28;20490;-61
2023/01/06 05:01:09;;;;;;;3.30;1.00;;;;;;;10.26;100.00;100303.19;5083282;28;20499;-60
2023/01/06 05:03:36;;;;;;;2.80;1.30;;;;;;;10.36;100.00;100309.44;5064374;28;20501;-60
2023/01/06 05:06:08;;;;;;;1.70;1.17;;;;;;;10.16;100.00;100302.31;5074532;28;21068;-60
2023/01/06 05:08:35;;;;;;;2.80;1.50;;;;;;;10.42;100.00;100312.53;5083865;28;20472;-60
2023/01/06 05:11:03;;;;;;;3.37;1.40;;;;;;;10.35;100.00;100290.84;5082839;28;20491;-60
2023/01/06 05:13:31;;;;;;;6.03;1.50;;;;;;;10.32;100.00;100296.47;5082946;28;20440;-60
2023/01/06 05:15:58;;;;;;;3.20;1.47;;;;;;;10.21;100.00;100299.22;5082965;28;20517;-60
2023/01/06 05:18:26;;;;;;;3.23;1.50;;;;;;;10.34;100.00;100295.34;5084224;28;20429;-59
2023/01/06 05:20:54;;;;;;;4.90;2.40;;;;;;;10.34;100.00;100292.66;5082599;28;20495;-60
2023/01/06 05:23:21;;;;;;;7.47;3.30;;;;;;;10.27;100.00;100290.66;5082515;28;20909;-60
2023/01/06 05:25:50;;;;;;;5.57;2.90;;;;;;;10.29;100.00;100286.03;5082921;28;20495;-59
2023/01/06 05:28:17;;;;;;;2.63;2.20;;;;;;;10.34;100.00;100286.47;5082947;28;20459;-60
2023/01/06 05:30:43;;;;;;;3.37;3.07;;;;;;;10.26;100.00;100286.28;5082032;28;20893;-60
2023/01/06 05:33:10;;;;;;;5.93;3.03;;;;;;;10.30;100.00;100277.03;5082649;28;20471;-59
2023/01/06 05:35:38;;;;;;;4.40;3.50;;;;;;;10.23;100.00;100279.41;5082089;28;20468;-59
2023/01/06 05:38:05;;;;;;;5.07;2.53;;;;;;;10.13;100.00;100287.38;5083270;28;20475;-60
2023/01/06 05:40:31;;;;;;;5.27;3.23;;;;;;;10.27;100.00;100279.97;5081923;28;20503;-59
2023/01/06 05:42:58;;;;;;;3.43;2.93;;;;;;;10.13;100.00;100284.72;5082149;28;20519;-59
2023/01/06 05:45:25;;;;;;;6.37;3.23;;;;;;;10.29;100.00;100270.81;5081627;28;20453;-61
2023/01/06 05:47:52;;;;;;;3.80;2.80;;;;;;;10.22;100.00;100274.19;5083397;28;20449;-60
2023/01/06 05:50:19;;;;;;;4.60;2.47;;;;;;;10.09;100.00;100275.28;5080803;28;20444;-59
2023/01/06 05:52:47;;;;;;;5.90;2.70;;;;;;;10.21;100.00;100284.06;5080518;28;20448;-58
2023/01/06 05:55:13;;;;;;;3.30;1.83;;;;;;;10.14;100.00;100277.56;5081411;28;20475;-59
2023/01/06 05:57:40;;;;;;;5.60;2.90;;;;;;;10.21;100.00;100273.38;5080577;28;20464;-59
2023/01/06 06:00:08;;;;;;;6.60;3.03;;;;;;;10.16;100.00;100272.94;5083121;28;20461;-59
2023/01/06 06:02:34;;;;;;;4.27;3.00;;;;;;;10.19;100.00;100272.66;5082206;28;21010;-58
2023/01/06 06:05:01;;;;;;;6.37;3.00;;;;;;;10.18;100.00;100276.31;5081303;28;20459;-59
2023/01/06 06:07:28;;;;;;;4.00;2.90;;;;;;;10.24;100.00;100272.22;5086838;28;20472;-59
2023/01/06 06:09:56;;;;;;;5.10;3.13;;;;;;;10.12;100.00;100260.81;5081556;28;20478;-59
2023/01/06 06:12:22;;;;;;;5.70;2.60;;;;;;;10.20;100.00;100260.97;5081227;28;20503;-59
2023/01/06 06:14:49;;;;;;;4.33;2.53;;;;;;;10.20;100.00;100266.31;5082435;28;20452;-59
2023/01/06 06:17:15;;;;;;;6.90;2.93;;;;;;;10.32;100.00;100256.38;5079599;28;20504;-60
2023/01/06 06:19:42;;;;;;;5.40;2.60;;;;;;;10.39;100.00;100259.34;5080052;28;20456;-60
2023/01/06 06:22:09;;;;;;;6.13;2.93;;;;;;;10.33;100.00;100244.72;5078680;28;20582;-61
2023/01/06 06:24:35;;;;;;;5.50;2.70;;;;;;;10.38;100.00;100260.31;5085702;28;20441;-61
2023/01/06 06:27:03;;;;;;;12.37;2.70;;;;;;;10.27;100.00;100247.91;5079864;28;20476;-61
2023/01/06 06:29:30;;;;;;;4.10;2.40;;;;;;;10.32;100.00;100251.03;5076397;28;20449;-61
2023/01/06 06:31:57;;;;;;;5.10;2.53;;;;;;;10.25;100.00;100248.03;5080921;28;20468;-61
2023/01/06 06:34:23;;;;;;;7.23;2.93;;;;;;;10.17;100.00;100248.75;5079534;28;20480;-60
2023/01/06 06:36:50;;;;;;;7.00;3.17;;;;;;;10.28;100.00;100246.94;5080669;28;20475;-60
2023/01/06 06:39:17;;;;;;;3.10;2.37;;;;;;;10.28;100.00;100249.63;5081116;28;20484;-61
2023/01/06 06:41:43;;;;;;;3.30;2.43;;;;;;;10.14;100.00;100237.50;5079459;28;20515;-60
2023/01/06 06:44:11;;;;;;;4.93;2.17;;;;;;;10.30;100.00;100228.94;5079941;28;21114;-61
2023/01/06 06:46:38;;;;;;;5.63;2.80;;;;;;;10.32;100.00;100227.81;5079736;28;20484;-62
2023/01/06 06:49:05;;;;;;;5.07;2.17;;;;;;;10.23;100.00;100225.97;5080582;28;20480;-61
2023/01/06 06:51:31;;;;;;;3.63;2.23;;;;;;;10.30;100.00;100227.09;5068251;28;20510;-61
2023/01/06 06:53:58;;;;;;;4.40;2.47;;;;;;;10.29;100.00;100225.41;5078085;28;20487;-61
2023/01/06 06:56:24;;;;;;;3.50;2.30;;;;;;;10.26;100.00;100228.38;5080077;28;20520;-61
2023/01/06 06:58:51;;;;;;;4.53;1.90;;;;;;;10.26;100.00;100235.53;5079616;28;20542;-61
2023/01/06 07:01:20;;;;;;;5.63;2.00;;;;;;;10.30;100.00;100227.09;5080701;28;20502;-61
2023/01/06 07:03:47;;;;;;;2.73;1.50;;;;;;;10.32;100.00;100227.81;5081123;28;20519;-60
2023/01/06 07:06:15;;;;;;;2.20;1.70;;;;;;;10.29;100.00;100228.06;5079201;28;20480;-61
2023/01/06 07:08:43;;;;;;;5.17;1.60;;;;;;;10.43;99.88;100218.00;5079576;28;20523;-61
2023/01/06 07:11:09;;;;;;;2.23;1.23;;;;;;;10.26;100.00;100211.47;5078292;28;20486;-61
2023/01/06 07:13:36;;;;;;;2.33;1.60;;;;;;;10.29;100.00;100213.88;5077025;28;20448;-61
2023/01/06 07:16:03;;;;;;;3.47;1.60;;;;;;;10.34;100.00;100219.69;5078085;28;20480;-61
2023/01/06 07:18:31;;;;;;;4.50;1.70;;;;;;;10.21;100.00;100211.03;5078378;28;20453;-61
2023/01/06 07:20:58;;;;;;;3.63;1.77;;;;;;;10.33;100.00;100215.34;5076989;28;20479;-61
2023/01/06 07:23:25;;;;;;;4.60;1.60;;;;;;;10.19;100.00;100211.22;5079498;28;20492;-60
2023/01/06 07:25:53;;;;;;;2.03;1.30;;;;;;;10.27;100.00;100207.81;5076483;28;20515;-61
2023/01/06 07:28:19;;;;;;;2.70;1.67;;;;;;;10.27;100.00;100206.00;5066588;28;20476;-61
2023/01/06 07:30:46;;;;;;;3.80;2.17;;;;;;;10.18;100.00;100217.53;5058138;28;20495;-60
2023/01/06 07:33:12;;;;;;;2.17;1.77;;;;;;;10.42;100.00;100225.16;5074988;28;20437;-61
2023/01/06 07:35:40;;;;;;;7.60;3.30;;;;;;;10.34;100.00;100215.16;5077684;28;20771;-61
2023/01/06 07:38:08;;;;;;;1.97;1.10;;;;;;;10.45;100.00;100206.19;5077939;28;20487;-61
2023/01/06 07:40:35;;;;;;;3.00;1.50;;;;;;;10.33;100.00;100201.97;5078923;28;20515;-60
2023/01/06 07:43:04;;;;;;;2.10;1.70;;;;;;;10.16;100.00;100195.44;5077883;28;20508;-61
2023/01/06 07:45:31;;;;;;;1.70;1.37;;;;;;;10.21;100.00;100193.22;5076520;28;20488;-61
2023/01/06 07:47:57;;;;;;;3.70;1.80;;;;;;;10.16;100.00;100188.28;5078355;28;20476;-60
2023/01/06 07:50:25;;;;;;;6.10;1.60;;;;;;;10.23;100.00;100191.22;5075956;28;20459;-60
2023/01/06 07:52:53;;;;;;;2.77;1.70;;;;;;;10.16;100.00;100188.28;5078118;28;20483;-61
2023/01/06 07:55:19;;;;;;;4.07;2.13;;;;;;;10.15;100.00;100194.59;5097630;28;20455;-59
2023/01/06 07:57:46;;;;;;;2.50;1.57;;;;;;;10.05;100.00;100199.09;5089144;28;20460;-59
2023/01/06 08:00:14;;;;;;;2.60;2.00;;;;;;;10.16;100.00;100198.97;5097497;28;20447;-59
2023/01/06 08:02:40;;;;;;;2.57;1.50;;;;;;;10.15;100.00;100199.94;5077375;28;20448;-59
2023/01/06 08:05:08;;;;;;;3.93;1.70;;;;;;;10.13;100.00;100207.25;5076127;28;20475;-59
2023/01/06 08:07:34;;;;;;;3.97;2.07;;;;;;;10.35;100.00;100206.19;5097806;28;20451;-59
2023/01/06 08:10:02;;;;;;;2.53;2.00;;;;;;;10.26;100.00;100200.78;5097232;28;20570;-59
2023/01/06 08:12:29;;;;;;;6.20;1.60;;;;;;;10.27;100.00;100203.31;5097107;28;20495;-60
2023/01/06 08:14:56;;;;;;;1.93;1.73;;;;;;;10.30;100.00;100210.22;5098698;28;20474;-59
2023/01/06 08:17:22;;;;;;;2.40;1.40;;;;;;;10.26;100.00;100220.34;5098071;28;20509;-59
2023/01/06 08:19:49;;;;;;;3.97;1.70;;;;;;;10.34;100.00;100220.50;5097385;28;21111;-59
2023/01/06 08:22:16;;;;;;;5.70;2.03;;;;;;;10.43;100.00;100223.34;5100874;28;20483;-60
2023/01/06 08:24:42;;;;;;;3.60;1.63;;;;;;;10.38;100.00;100221.09;5103357;28;20499;-60
2023/01/06 08:27:10;;;;;;;1.60;0.97;;;;;;;10.42;100.00;100211.81;5099981;28;20486;-60
2023/01/06 08:29:37;;;;;;;2.37;1.80;;;;;;;10.43;100.00;100213.47;5104103;28;20479;-60
2023/01/06 08:32:04;;;;;;;2.47;1.63;;;;;;;10.55;100.00;100223.06;5100661;28;20484;-60
2023/01/06 08:34:30;;;;;;;2.37;2.17;;;;;;;10.50;100.00;100219.97;5102761;28;20431;-59
2023/01/06 08:36:57;;;;;;;3.43;1.73;;;;;;;10.45;100.00;100221.34;5102055;28;20543;-59
2023/01/06 08:39:24;;;;;;;2.03;1.53;;;;;;;10.46;100.00;100223.91;5100596;28;20510;-60
2023/01/06 08:41:51;;;;;;;3.10;1.47;;;;;;;10.35;100.00;100226.72;5102331;28;20506;-60
2023/01/06 08:44:19;;;;;;;1.70;1.50;;;;;;;10.43;100.00;100224.16;5100033;28;20483;-59
2023/01/06 08:46:45;;;;;;;2.23;1.50;;;;;;;10.55;100.00;100233.75;5100284;28;20482;-60
2023/01/06 08:49:12;;;;;;;2.20;1.50;;;;;;;10.41;100.00;100234.16;5091543;28;20444;-60
2023/01/06 08:51:39;;;;;;;3.33;1.30;;;;;;;10.44;100.00;100233.88;5100694;28;20895;-60
2023/01/06 08:54:05;;;;;;;2.90;1.17;;;;;;;10.39;100.00;100236.13;5101965;28;20436;-59
2023/01/06 08:56:32;;;;;;;3.77;1.60;;;;;;;10.35;100.00;100226.72;5101288;28;20502;-59
2023/01/06 08:59:01;;;;;;;3.27;1.43;;;;;;;10.52;100.00;100227.84;5100514;28;20467;-60
2023/01/06 09:01:31;;;;;;;1.90;1.30;;;;;;;10.35;100.00;100224.03;5101763;28;20475;-60
2023/01/06 09:03:59;;;;;;;5.73;1.43;;;;;;;10.53;100.00;100234.88;5101508;28;20502;-59
2023/01/06 09:06:27;;;;;;;4.63;1.70;;;;;;;10.61;100.00;100236.84;5101832;28;20501;-59
2023/01/06 09:08:53;;;;;;;2.20;1.50;;;;;;;10.54;100.00;100242.75;5103028;28;20738;-60
2023/01/06 09:11:20;;;;;;;2.90;1.50;;;;;;;10.55;100.00;100240.91;5093681;28;20581;-60
2023/01/06 09:13:49;;;;;;;2.50;1.80;;;;;;;10.60;100.00;100246.69;5101075;28;20451;-59
2023/01/06 09:16:16;;;;;;;1.90;1.70;;;;;;;10.44;100.00;100246.41;5102078;28;20475;-59
2023/01/06 09:18:48;;;;;;;1.87;1.33;;;;;;;10.30;100.00;100252.97;5101213;28;20888;-59
2023/01/06 09:21:15;;;;;;;2.67;2.47;;;;;;;10.21;100.00;100264.47;5101521;28;20510;-60
2023/01/06 09:23:42;;;;;;;2.97;1.77;;;;;;;10.23;100.00;100275.91;5101841;28;20511;-59
2023/01/06 09:26:08;;;;;;;1.97;1.57;;;;;;;10.21;100.00;100273.38;5100325;28;20509;-59
2023/01/06 09:28:35;;;;;;;2.03;1.80;;;;;;;10.15;100.00;100272.06;5101931;28;20475;-59
2023/01/06 09:31:02;;;;;;;1.67;1.57;;;;;;;10.07;100.00;100282.59;5101689;28;20999;-60
2023/01/06 09:33:29;;;;;;;2.33;1.80;;;;;;;10.04;100.00;100282.03;5100951;28;20476;-60
2023/01/06 09:35:57;;;;;;;2.00;1.60;;;;;;;10.12;100.00;100277.69;5101471;28;20548;-59
2023/01/06 09:38:23;;;;;;;2.73;2.20;;;;;;;10.13;100.00;100281.22;5102604;28;20487;-60
2023/01/06 09:41:02;;;;;;;2.30;2.10;;;;;;;10.06;100.00;100280.06;5100542;28;20503;-60
2023/01/06 09:43:38;;;;;;;2.50;1.90;;;;;;;10.26;100.00;100275.59;5101756;28;20475;-60
2023/01/06 09:46:06;;;;;;;2.53;2.07;;;;;;;10.11;100.00;100286.69;5101753;28;20475;-60
2023/01/06 09:48:36;;;;;;;4.00;2.73;;;;;;;9.90;100.00;100301.94;5101003;28;20469;-59
2023/01/06 09:51:05;;;;;;;4.30;2.30;;;;;;;9.97;100.00;100303.94;5098954;28;20471;-59
2023/01/06 09:53:34;;;;;;;2.37;2.17;;;;;;;10.07;100.00;100292.44;5102003;28;20431;-59
2023/01/06 09:56:03;;;;;;;5.03;2.47;;;;;;;10.10;100.00;100301.03;5100515;28;21076;-59
2023/01/06 09:58:34;;;;;;;3.03;2.83;;;;;;;10.05;100.00;100289.91;5101532;28;20478;-60
2023/01/06 10:01:04;;;;;;;3.03;2.83;;;;;;;9.92;100.00;100297.31;5101397;28;20497;-59
2023/01/06 10:03:31;;;;;;;5.50;3.20;;;;;;;10.10;100.00;100290.34;5100274;28;20534;-60
2023/01/06 10:06:07;;;;;;;4.10;3.13;;;;;;;9.57;100.00;100274.56;5101347;28;20471;-59
2023/01/06 10:08:39;;;;;;;3.70;3.10;;;;;;;9.75;100.00;100291.63;5101902;28;20469;-60
2023/01/06 10:11:11;;;;;;;8.83;3.20;;;;;;;9.73;100.00;100288.25;5099516;28;20483;-60
2023/01/06 10:13:58;;;;;;;6.23;4.07;;;;;;;9.72;100.00;100294.59;5101056;28;20479;-60
2023/01/06 10:16:36;;;;;;;4.03;3.67;;;;;;;9.73;100.00;100306.94;5093127;28;20478;-60
2023/01/06 10:19:13;;;;;;;3.63;3.33;;;;;;;9.93;100.00;100317.69;5100263;28;20466;-60
2023/01/06 10:21:44;;;;;;;4.07;3.67;;;;;;;9.74;100.00;100305.13;5100217;28;20482;-59
2023/01/06 10:24:26;;;;;;;6.10;3.00;;;;;;;9.85;100.00;100301.50;5102185;28;20506;-59
2023/01/06 10:26:56;;;;;;;4.30;3.90;;;;;;;9.70;100.00;100306.34;5098819;28;20499;-59
2023/01/06 10:29:25;;;;;;;5.87;4.90;;;;;;;9.86;100.00;100304.06;5101027;28;20459;-60
2023/01/06 10:31:53;;;;;;;6.50;6.00;;;;;;;9.78;100.00;100309.22;5100356;28;20503;-60
2023/01/06 10:34:22;;;;;;;8.37;6.20;;;;;;;9.93;100.00;100312.34;5100529;28;20459;-60
2023/01/06 10:36:55;;;;;;;7.03;6.50;;;;;;;9.75;100.00;100299.63;5098370;28;20964;-59
2023/01/06 10:39:24;;;;;;;7.67;6.97;;;;;;;9.91;100.00;100303.63;5100353;28;20479;-60
2023/01/06 10:42:54;;;;;;;7.53;6.90;;;;;;;9.99;100.00;100309.16;5098899;28;20486;-60
2023/01/06 10:44:47;;;;;;;7.47;6.47;;;;;;;10.03;100.00;100315.06;5100101;28;20490;-59
2023/01/06 10:47:17;;;;;;;6.87;6.27;;;;;;;10.03;100.00;100315.06;5099749;28;20475;-60
2023/01/06 10:49:44;;;;;;;8.43;7.63;;;;;;;10.23;100.00;100327.50;5099343;28;20470;-59
2023/01/06 10:52:12;;;;;;;6.27;5.77;;;;;;;10.21;100.00;100323.25;5099984;28;20475;-60
2023/01/06 10:54:40;;;;;;;6.57;5.80;;;;;;;10.06;100.00;100315.63;5100285;28;20439;-60
2023/01/06 10:57:14;;;;;;;6.20;5.70;;;;;;;10.32;100.00;100320.53;5099843;28;20475;-60
2023/01/06 11:00:09;;;;;;;6.70;6.13;;;;;;;10.42;100.00;100321.38;5100453;28;20480;-61
2023/01/06 11:02:36;;;;;;;6.63;6.00;;;;;;;10.29;100.00;100318.91;5099160;28;20495;-59
2023/01/06 11:05:02;;;;;;;6.40;5.27;;;;;;;10.38;100.00;100319.13;5095244;28;20517;-59
2023/01/06 11:07:30;;;;;;;6.10;5.57;;;;;;;10.38;100.00;100330.69;5097267;28;20487;-59
2023/01/06 11:09:59;;;;;;;6.87;6.17;;;;;;;10.55;100.00;100335.34;5097793;28;20447;-59
2023/01/06 11:12:27;;;;;;;7.23;6.63;;;;;;;10.75;100.00;100330.03;5099045;28;20481;-60
2023/01/06 11:14:57;;;;;;;6.63;6.03;;;;;;;10.96;100.00;100339.75;5099152;28;20530;-60
2023/01/06 11:17:25;;;;;;;6.20;5.70;;;;;;;11.19;100.00;100335.75;5100412;28;20540;-60
2023/01/06 11:20:06;;;;;;;6.07;5.67;;;;;;;11.11;100.00;100319.59;5098782;28;20443;-60
2023/01/06 11:22:36;;;;;;;6.10;5.60;;;;;;;11.17;100.00;100336.91;5098413;28;20459;-60
2023/01/06 11:25:12;;;;;;;6.37;5.67;;;;;;;10.98;100.00;100345.78;5097678;28;20492;-59
2023/01/06 11:27:39;;;;;;;6.17;5.67;;;;;;;10.87;100.00;100344.94;5099030;28;20475;-59
2023/01/06 11:30:21;;;;;;;6.00;5.37;;;;;;;10.95;100.00;100338.88;5100350;28;20482;-59
2023/01/06 11:32:47;;;;;;;6.90;6.30;;;;;;;10.85;100.00;100343.38;5078891;28;20459;-59